Time;durP1;ratioP1;P1;durP2;ratioP2;P2;SDS_P1;SDS_P2;PMS_P1;PMS_P2;Temp;Humidity;BMP_temperature;BMP_pressure;BME280_temperature;BME280_humidity;BME280_pressure;Samples;Min_cycle;Max_cycle;Signal;HPM_P1;HPM_P2
2022/06/09 00:00:07;;;;;;;2.15;0.63;;;12.80;99.90;;;12.48;100.00;96688.41;5025557;28;20035;-47
2022/06/09 00:02:35;;;;;;;0.77;0.55;;;12.80;99.90;;;12.54;100.00;96685.44;5025993;28;20543;-48
2022/06/09 00:05:03;;;;;;;1.02;0.60;;;12.80;99.90;;;12.58;100.00;96693.13;5031554;28;20152;-47
2022/06/09 00:07:31;;;;;;;0.85;0.60;;;12.90;99.90;;;12.62;100.00;96693.78;5043315;28;20040;-48
2022/06/09 00:10:08;;;;;;;1.67;0.55;;;13.00;99.90;;;12.71;100.00;96698.56;5040712;28;20041;-46
2022/06/09 00:12:34;;;;;;;0.95;0.70;;;13.00;99.90;;;12.77;100.00;96705.28;5027932;28;20026;-46
2022/06/09 00:15:04;;;;;;;2.47;0.80;;;13.10;99.90;;;12.83;100.00;96707.59;5022094;28;20034;-47
2022/06/09 00:17:30;;;;;;;0.57;0.47;;;13.20;99.90;;;12.90;100.00;96711.59;5027545;28;20028;-47
2022/06/09 00:19:56;;;;;;;0.50;0.50;;;13.20;99.90;;;12.94;100.00;96710.47;5023390;28;20032;-49
2022/06/09 00:22:22;;;;;;;0.60;0.60;;;13.30;99.90;;;12.96;100.00;96711.25;5027087;28;20029;-49
2022/06/09 00:24:48;;;;;;;0.70;0.70;;;13.30;99.90;;;13.02;100.00;96710.03;5025531;28;20092;-46
2022/06/09 00:27:13;;;;;;;0.50;0.50;;;13.40;99.90;;;13.01;100.00;96708.34;5028646;28;20029;-47
2022/06/09 00:29:39;;;;;;;0.90;0.63;;;13.40;99.90;;;13.08;100.00;96722.94;5024048;28;20033;-46
2022/06/09 00:32:06;;;;;;;2.08;0.60;;;13.40;99.90;;;13.10;100.00;96714.88;5026255;28;20018;-47
2022/06/09 00:34:31;;;;;;;0.52;0.52;;;13.40;99.90;;;13.14;100.00;96717.25;5024083;28;20074;-46
2022/06/09 00:36:57;;;;;;;0.95;0.60;;;13.50;99.90;;;13.13;100.00;96733.22;5038074;28;20018;-46
2022/06/09 00:39:23;;;;;;;0.75;0.50;;;13.50;99.90;;;13.13;100.00;96730.59;5026799;28;20116;-47
2022/06/09 00:41:49;;;;;;;1.85;0.60;;;13.50;99.90;;;13.12;100.00;96737.69;5026632;28;20322;-47
2022/06/09 00:44:18;;;;;;;0.63;0.40;;;13.50;99.90;;;13.12;100.00;96728.91;5024952;28;20033;-46
2022/06/09 00:46:48;;;;;;;0.55;0.55;;;13.50;99.90;;;13.10;100.00;96726.34;5022428;28;20029;-47
2022/06/09 00:49:30;;;;;;;0.50;0.50;;;13.50;99.90;;;13.13;100.00;96727.94;5042533;28;20033;-47
2022/06/09 00:51:59;;;;;;;;;;;13.50;99.90;;;13.12;100.00;96726.25;5023426;28;20426;-47
2022/06/09 00:54:31;;;;;;;2.28;0.55;;;13.50;99.90;;;13.10;100.00;96721.03;5029560;28;19920;-46
2022/06/09 00:57:10;;;;;;;0.50;0.50;;;13.50;99.90;;;13.11;100.00;96719.25;5039678;28;20021;-47
2022/06/09 00:59:37;;;;;;;0.80;0.50;;;13.50;99.90;;;13.07;100.00;96717.72;5030150;28;20088;-47
2022/06/09 01:02:07;;;;;;;0.40;0.40;;;13.40;99.90;;;13.09;100.00;96719.31;5044298;28;20021;-46
2022/06/09 01:04:34;;;;;;;4.22;0.50;;;13.50;99.90;;;13.09;100.00;96729.06;5044300;28;20282;-48
2022/06/09 01:07:10;;;;;;;1.88;0.60;;;13.50;99.90;;;13.08;100.00;96730.88;5026394;28;20075;-47
2022/06/09 01:09:36;;;;;;;2.50;0.57;;;13.40;99.90;;;13.05;100.00;96727.53;5027178;28;20106;-49
2022/06/09 01:12:27;;;;;;;0.47;0.40;;;13.40;99.90;;;12.96;100.00;96735.06;5022194;28;20022;-47
2022/06/09 01:15:00;;;;;;;0.43;0.40;;;13.40;99.90;;;12.87;100.00;96721.50;5021790;28;20024;-47
2022/06/09 01:17:38;;;;;;;2.65;0.43;;;13.30;99.90;;;12.83;100.00;96725.25;5042736;28;20022;-47
2022/06/09 01:20:30;;;;;;;0.80;0.50;;;13.20;99.90;;;12.77;100.00;96726.47;5024632;28;20029;-47
2022/06/09 01:23:15;;;;;;;2.88;0.93;;;13.20;99.90;;;12.68;100.00;96719.88;5022071;28;20021;-45
2022/06/09 01:26:16;;;;;;;0.95;0.40;;;13.10;99.90;;;12.63;100.00;96723.72;5025782;28;20025;-46
2022/06/09 01:29:26;;;;;;;1.27;0.40;;;13.00;99.90;;;12.52;100.00;96722.53;5039405;28;20385;-46
2022/06/09 01:32:18;;;;;;;0.55;0.40;;;12.90;99.90;;;12.44;100.00;96721.28;5026235;28;20033;-47
2022/06/09 01:35:10;;;;;;;1.05;0.60;;;12.90;99.90;;;12.38;100.00;96723.31;5024991;28;20084;-46
2022/06/09 01:37:41;;;;;;;0.52;0.40;;;12.80;99.90;;;12.32;100.00;96731.56;5026181;28;20129;-47
2022/06/09 01:40:12;;;;;;;2.17;0.50;;;12.70;99.90;;;12.30;100.00;96722.88;5021954;28;20034;-45
2022/06/09 01:42:44;;;;;;;4.65;0.60;;;12.70;99.90;;;12.29;100.00;96725.59;5025293;28;20067;-46
2022/06/09 01:45:23;;;;;;;;;;;12.60;99.90;;;12.21;100.00;96724.22;5018211;28;20117;-46
2022/06/09 01:48:11;;;;;;;3.50;0.80;;;12.60;99.90;;;12.18;100.00;96723.53;5040790;28;19909;-45
2022/06/09 01:51:03;;;;;;;1.50;0.60;;;12.60;99.90;;;12.18;100.00;96736.75;5041080;28;20029;-45
2022/06/09 01:53:44;;;;;;;1.30;0.70;;;12.60;99.90;;;12.21;100.00;96741.88;5012931;28;20440;-46
2022/06/09 01:56:17;;;;;;;2.20;0.70;;;12.60;99.90;;;12.19;100.00;96739.31;5025613;28;20061;-47
2022/06/09 01:58:54;;;;;;;3.25;0.90;;;12.60;99.90;;;12.17;100.00;96743.84;5025382;28;20549;-45
2022/06/09 02:01:30;;;;;;;2.35;0.80;;;12.50;99.90;;;12.16;100.00;96733.34;5031966;28;20117;-47
2022/06/09 02:03:59;;;;;;;1.23;0.82;;;12.50;99.90;;;12.09;100.00;96739.88;5038051;28;20088;-45
2022/06/09 02:06:26;;;;;;;1.45;0.77;;;12.50;99.90;;;12.07;100.00;96729.41;5039314;28;20080;-46
2022/06/09 02:08:52;;;;;;;4.55;0.80;;;12.50;99.90;;;12.06;100.00;96732.13;5025471;28;20021;-47
2022/06/09 02:11:18;;;;;;;2.42;0.80;;;12.40;99.90;;;12.06;100.00;96737.41;5016277;28;20021;-46
2022/06/09 02:13:50;;;;;;;2.40;0.93;;;12.40;99.90;;;12.11;100.00;96730.94;5028902;28;20025;-46
2022/06/09 02:16:21;;;;;;;2.88;0.90;;;12.50;99.90;;;12.06;100.00;96727.72;5030647;28;20028;-45
2022/06/09 02:18:52;;;;;;;4.13;0.80;;;12.40;99.90;;;12.00;100.00;96733.31;5027348;28;20034;-45
2022/06/09 02:21:28;;;;;;;2.63;0.90;;;12.40;99.90;;;12.06;100.00;96745.34;5025930;28;20041;-46
2022/06/09 02:23:54;;;;;;;2.28;0.95;;;12.40;99.90;;;11.99;100.00;96737.75;5025800;28;20040;-45
2022/06/09 02:26:21;;;;;;;2.13;0.70;;;12.40;99.90;;;11.99;100.00;96742.19;5025259;28;20540;-46
2022/06/09 02:28:50;;;;;;;2.33;0.90;;;12.40;99.90;;;11.96;100.00;96748.47;5029199;28;20120;-45
2022/06/09 02:31:18;;;;;;;1.88;1.00;;;12.30;99.90;;;11.94;100.00;96741.56;5024633;28;20108;-45
2022/06/09 02:33:44;;;;;;;3.78;1.27;;;12.30;99.90;;;11.91;100.00;96745.22;5029822;28;20181;-46
2022/06/09 02:36:10;;;;;;;2.20;0.82;;;12.30;99.90;;;11.90;100.00;96746.16;5033719;28;20088;-46
2022/06/09 02:38:36;;;;;;;7.03;1.00;;;12.30;99.90;;;11.90;100.00;96748.81;5034178;28;20037;-45
2022/06/09 02:41:02;;;;;;;2.42;1.20;;;12.30;99.90;;;11.85;100.00;96746.34;5031259;28;20604;-45
2022/06/09 02:43:28;;;;;;;4.07;1.30;;;12.30;99.90;;;11.79;100.00;96740.53;5031902;28;20025;-48
2022/06/09 02:45:54;;;;;;;3.22;0.82;;;12.20;99.90;;;11.80;100.00;96750.19;5016776;28;20043;-45
2022/06/09 02:48:20;;;;;;;2.17;1.10;;;12.20;99.90;;;11.78;100.00;96744.13;5031268;28;20053;-45
2022/06/09 02:50:46;;;;;;;3.17;1.30;;;12.20;99.90;;;11.71;100.00;96746.22;5026268;28;20044;-47
2022/06/09 02:53:14;;;;;;;2.50;1.25;;;12.10;99.90;;;11.68;100.00;96742.88;5027697;28;20022;-45
2022/06/09 02:55:40;;;;;;;1.73;1.13;;;12.00;99.90;;;11.59;100.00;96739.81;5029113;28;20101;-48
2022/06/09 02:58:06;;;;;;;1.90;1.00;;;12.10;99.90;;;11.57;100.00;96746.94;5030775;28;20083;-49
2022/06/09 03:00:31;;;;;;;4.00;1.30;;;12.00;99.90;;;11.61;100.00;96758.19;5032094;28;20414;-46
2022/06/09 03:03:02;;;;;;;2.15;1.10;;;12.00;99.90;;;11.62;100.00;96763.41;5027713;28;20083;-46
2022/06/09 03:05:30;;;;;;;3.65;1.55;;;12.00;99.90;;;11.64;100.00;96768.59;5031630;28;20537;-46
2022/06/09 03:07:56;;;;;;;1.98;1.38;;;12.00;99.90;;;11.61;100.00;96767.00;5026565;28;20040;-49
2022/06/09 03:10:23;;;;;;;3.00;1.48;;;12.00;99.90;;;11.60;100.00;96767.91;5027848;28;20029;-46
2022/06/09 03:12:49;;;;;;;3.33;1.60;;;12.00;99.90;;;11.63;100.00;96766.91;5032785;28;20183;-45
2022/06/09 03:15:18;;;;;;;1.20;1.10;;;12.00;99.90;;;11.65;100.00;96773.81;5023300;28;20393;-50
2022/06/09 03:17:44;;;;;;;2.28;1.15;;;12.10;99.90;;;11.69;100.00;96771.03;5029393;28;20516;-46
2022/06/09 03:20:16;;;;;;;4.43;1.48;;;12.10;99.90;;;11.69;100.00;96768.38;5028192;28;20065;-45
2022/06/09 03:22:42;;;;;;;2.50;1.30;;;12.10;99.90;;;11.69;100.00;96771.88;5024341;28;20026;-46
2022/06/09 03:25:08;;;;;;;6.32;1.60;;;12.10;99.90;;;11.71;100.00;96777.91;5028941;28;20105;-46
2022/06/09 03:27:34;;;;;;;2.35;1.52;;;12.10;99.90;;;11.68;100.00;96769.31;5022873;28;20029;-45
2022/06/09 03:30:01;;;;;;;5.13;1.45;;;12.10;99.90;;;11.72;100.00;96779.63;5029056;28;20030;-47
2022/06/09 03:32:28;;;;;;;2.00;1.35;;;12.20;99.90;;;11.77;100.00;96784.66;5024249;28;20143;-47
2022/06/09 03:34:54;;;;;;;4.13;1.70;;;12.20;99.90;;;11.75;100.00;96774.19;5029373;28;20025;-47
2022/06/09 03:37:20;;;;;;;2.55;1.60;;;12.20;99.90;;;11.79;100.00;96773.09;5028209;28;20027;-48
2022/06/09 03:39:45;;;;;;;2.22;1.45;;;12.20;99.90;;;11.82;100.00;96780.00;5027849;28;20033;-47
2022/06/09 03:42:11;;;;;;;3.78;1.30;;;12.20;99.90;;;11.84;100.00;96780.78;5027939;28;20030;-49
2022/06/09 03:44:37;;;;;;;5.07;1.92;;;12.30;99.90;;;11.87;100.00;96793.00;5024925;28;20034;-48
2022/06/09 03:47:03;;;;;;;2.40;1.58;;;12.30;99.90;;;11.92;100.00;96794.50;5027379;28;20138;-45
2022/06/09 03:49:29;;;;;;;4.03;1.88;;;12.30;99.90;;;11.95;100.00;96796.09;5029100;28;20079;-46
2022/06/09 03:51:55;;;;;;;5.55;1.88;;;12.30;99.90;;;11.98;100.00;96804.72;5025089;28;20564;-48
2022/06/09 03:54:20;;;;;;;6.20;2.25;;;12.40;99.90;;;11.98;100.00;96794.16;5023368;28;20018;-47
2022/06/09 03:56:48;;;;;;;2.40;1.60;;;12.40;99.90;;;11.95;100.00;96796.97;5027196;28;20116;-48
2022/06/09 03:59:13;;;;;;;4.88;1.90;;;12.40;99.90;;;11.91;100.00;96810.41;5024948;28;20033;-47
2022/06/09 04:01:39;;;;;;;5.93;2.03;;;12.30;99.90;;;11.87;100.00;96814.97;5028721;28;20284;-47
2022/06/09 04:04:05;;;;;;;5.20;2.10;;;12.30;99.90;;;11.82;100.00;96809.91;5025398;28;20477;-45
2022/06/09 04:06:33;;;;;;;3.33;1.95;;;12.30;99.90;;;11.87;100.00;96814.97;5034256;28;20047;-46
2022/06/09 04:08:59;;;;;;;3.67;1.80;;;12.30;99.90;;;11.88;100.00;96827.25;5030955;28;20079;-47
2022/06/09 04:11:24;;;;;;;3.75;1.90;;;12.30;99.90;;;11.89;100.00;96822.81;5028124;28;20021;-48
2022/06/09 04:13:50;;;;;;;4.85;1.90;;;12.30;99.90;;;11.92;100.00;96825.34;5030628;28;20377;-49
2022/06/09 04:16:33;;;;;;;3.10;1.92;;;12.30;99.90;;;11.93;100.00;96827.88;5020659;28;20196;-46
2022/06/09 04:19:03;;;;;;;4.80;1.75;;;12.40;99.90;;;11.96;100.00;96826.91;5028149;28;20087;-46
2022/06/09 04:21:32;;;;;;;3.00;1.90;;;12.40;99.90;;;12.01;100.00;96831.00;5030166;28;20104;-47
2022/06/09 04:23:58;;;;;;;2.97;2.00;;;12.40;99.90;;;12.04;100.00;96835.25;5021109;28;20508;-48
2022/06/09 04:26:27;;;;;;;3.28;1.75;;;12.40;99.90;;;12.05;100.00;96833.50;5027288;28;20032;-45
2022/06/09 04:28:53;;;;;;;2.13;1.55;;;12.50;99.90;;;12.02;100.00;96831.84;5027427;28;20080;-48
2022/06/09 04:31:19;;;;;;;5.13;2.25;;;12.40;99.90;;;12.06;100.00;96838.72;5027087;28;20028;-47
2022/06/09 04:33:45;;;;;;;3.92;1.70;;;12.50;99.90;;;12.00;100.00;96837.22;5023846;28;20021;-48
2022/06/09 04:36:13;;;;;;;4.65;1.83;;;12.50;99.90;;;12.09;100.00;96853.53;5028481;28;20108;-45
2022/06/09 04:38:39;;;;;;;3.25;1.73;;;12.50;99.90;;;12.03;100.00;96850.28;5027190;28;20029;-49
2022/06/09 04:41:09;;;;;;;2.25;1.48;;;12.50;99.90;;;12.01;100.00;96852.16;5027584;28;20115;-45
2022/06/09 04:43:40;;;;;;;3.03;1.70;;;12.50;99.90;;;12.02;100.00;96858.28;5026457;28;20555;-48
2022/06/09 04:46:08;;;;;;;3.10;1.55;;;12.50;99.90;;;12.03;100.00;96866.13;5021125;28;20371;-46
2022/06/09 04:48:35;;;;;;;2.95;1.63;;;12.50;99.90;;;12.00;100.00;96866.28;5024402;28;20034;-46
2022/06/09 04:51:01;;;;;;;4.22;1.63;;;12.50;99.90;;;11.96;100.00;96864.72;5024869;28;20025;-46
2022/06/09 04:53:27;;;;;;;5.10;1.75;;;12.40;99.90;;;11.89;100.00;96863.31;5025756;28;20029;-48
2022/06/09 04:55:53;;;;;;;3.38;1.60;;;12.40;99.90;;;11.86;100.00;96874.03;5028372;28;20100;-47
2022/06/09 04:58:18;;;;;;;4.15;1.75;;;12.30;99.90;;;11.83;100.00;96874.19;5029687;28;20017;-47
2022/06/09 05:00:44;;;;;;;3.95;1.60;;;12.30;99.90;;;11.91;100.00;96872.03;5024689;28;20388;-49
2022/06/09 05:03:13;;;;;;;4.80;1.48;;;12.20;99.90;;;11.95;100.00;96878.91;5046527;23;20041;-45
2022/06/09 05:05:43;;;;;;;2.28;1.30;;;12.30;99.90;;;11.86;100.00;96876.66;5043518;28;20028;-45
2022/06/09 05:08:11;;;;;;;5.75;1.50;;;12.30;99.90;;;11.80;100.00;96872.53;5019994;28;20018;-44
2022/06/09 05:10:37;;;;;;;2.88;1.30;;;12.20;99.90;;;11.78;100.00;96870.94;5025740;28;20499;-44
2022/06/09 05:13:05;;;;;;;3.85;1.60;;;12.20;99.90;;;11.82;100.00;96877.75;5024025;28;20021;-45
2022/06/09 05:15:35;;;;;;;3.10;1.48;;;12.20;99.90;;;11.76;100.00;96894.78;5026356;28;20063;-46
2022/06/09 05:18:02;;;;;;;3.50;1.70;;;12.10;99.90;;;11.78;100.00;96892.06;5022271;28;20057;-44
2022/06/09 05:20:28;;;;;;;3.22;1.40;;;12.10;99.90;;;11.78;100.00;96892.91;5024120;28;20017;-45
2022/06/09 05:22:54;;;;;;;1.70;1.10;;;12.20;99.90;;;12.30;100.00;96889.44;5016692;28;20036;-44
2022/06/09 05:25:20;;;;;;;4.88;1.30;;;12.30;99.90;;;13.19;100.00;96883.81;5024406;28;20035;-45
2022/06/09 05:27:46;;;;;;;5.07;1.50;;;12.80;99.90;;;14.09;100.00;96904.28;5026324;28;20319;-44
2022/06/09 05:30:19;;;;;;;2.28;1.40;;;13.40;99.90;;;14.56;100.00;96902.38;5025585;28;20064;-45
2022/06/09 05:32:46;;;;;;;2.65;1.00;;;13.80;99.90;;;14.65;100.00;96904.50;5025283;28;20013;-45
2022/06/09 05:35:12;;;;;;;2.70;1.10;;;14.00;99.90;;;14.67;100.00;96896.44;5025569;28;20021;-46
2022/06/09 05:45:57;;;;;;;1.90;1.00;;;14.30;99.90;;;14.13;100.00;96910.25;5017769;28;20402;-47
2022/06/09 05:48:22;;;;;;;3.88;1.45;;;14.30;99.90;;;14.05;100.00;96923.97;5025769;28;20021;-48
2022/06/09 05:50:50;;;;;;;3.15;1.00;;;14.20;99.90;;;14.02;100.00;96926.81;5017163;28;20033;-46
2022/06/09 05:53:16;;;;;;;3.33;1.10;;;14.20;99.90;;;14.00;100.00;96922.50;5021038;28;20027;-44
2022/06/09 05:55:41;;;;;;;4.40;1.30;;;14.30;99.90;;;14.13;100.00;96932.31;5019206;28;20497;-46
2022/06/09 05:58:07;;;;;;;4.10;1.27;;;14.30;99.90;;;14.26;100.00;96937.75;5023060;28;20022;-44
2022/06/09 06:00:33;;;;;;;4.15;1.33;;;14.40;99.90;;;14.09;100.00;96932.59;5020716;28;20033;-44
2022/06/09 06:02:59;;;;;;;1.80;1.10;;;14.50;99.90;;;14.21;100.00;96937.19;5015824;28;20083;-45
2022/06/09 06:08:09;;;;;;;4.13;1.00;;;14.50;99.90;;;14.31;100.00;96941.00;5018722;28;20083;-46
2022/06/09 06:10:35;;;;;;;2.65;1.40;;;14.60;99.90;;;14.44;100.00;96954.38;5029046;28;20124;-47
2022/06/09 06:13:00;;;;;;;3.47;1.35;;;14.80;99.90;;;14.44;100.00;96938.44;5028783;28;20029;-45
2022/06/09 06:15:26;;;;;;;3.70;1.23;;;14.80;99.90;;;14.58;100.00;96950.94;5025790;28;20092;-48
2022/06/09 06:17:54;;;;;;;5.07;1.20;;;14.90;99.90;;;14.78;100.00;96952.38;5029674;28;20409;-45
2022/06/09 06:20:20;;;;;;;3.35;1.25;;;15.00;99.90;;;14.81;100.00;96938.06;5041708;28;20029;-44
2022/06/09 06:22:46;;;;;;;5.00;1.17;;;15.10;99.90;;;14.88;100.00;96958.84;5033755;28;20044;-43
2022/06/09 06:25:12;;;;;;;6.68;1.30;;;15.20;99.90;;;14.96;100.00;96958.34;5027372;28;20026;-45
2022/06/09 06:27:38;;;;;;;4.75;1.20;;;15.30;99.90;;;15.09;100.00;96961.09;5025204;28;20581;-46
2022/06/09 06:30:05;;;;;;;4.72;1.13;;;15.40;99.90;;;15.12;100.00;96960.91;5025415;28;20481;-46
2022/06/09 06:32:31;;;;;;;4.47;1.30;;;15.50;99.90;;;15.38;100.00;96959.28;5025815;28;20068;-46
2022/06/09 06:34:57;;;;;;;3.92;1.02;;;15.70;99.90;;;15.50;100.00;96962.97;5021818;28;20101;-45
2022/06/09 06:37:23;;;;;;;3.38;1.20;;;15.80;99.90;;;15.49;100.00;96966.59;5025154;28;21353;-44
2022/06/09 06:39:49;;;;;;;2.67;1.05;;;15.80;99.90;;;15.33;100.00;96968.50;5023480;28;20049;-45
2022/06/09 06:42:15;;;;;;;4.50;1.20;;;15.70;99.90;;;14.95;100.00;96961.97;5023067;28;20032;-45
2022/06/09 06:44:41;;;;;;;4.88;1.10;;;15.50;99.90;;;14.77;100.00;96956.00;5023972;28;20037;-47
2022/06/09 06:47:07;;;;;;;4.88;1.10;;;15.30;99.90;;;14.69;100.00;96974.16;5022628;28;20029;-46
2022/06/09 06:49:32;;;;;;;2.15;0.82;;;15.10;99.90;;;14.55;100.00;96993.53;5022481;28;20049;-45
2022/06/09 06:51:58;;;;;;;3.55;0.98;;;14.90;99.90;;;14.44;100.00;96998.63;5024836;28;20025;-44
2022/06/09 06:54:24;;;;;;;4.57;1.40;;;14.80;99.90;;;14.39;100.00;96998.03;5026695;28;20025;-45
2022/06/09 06:56:50;;;;;;;4.65;1.20;;;14.70;99.90;;;14.70;100.00;96995.31;5028335;28;20523;-45
2022/06/09 06:59:15;;;;;;;3.70;1.30;;;15.00;99.90;;;14.78;100.00;97002.81;5028463;28;20033;-43
2022/06/09 07:01:41;;;;;;;4.53;1.23;;;15.10;99.90;;;14.93;100.00;96998.41;5026377;28;20025;-44
2022/06/09 07:04:06;;;;;;;4.93;1.20;;;15.30;99.90;;;15.23;100.00;97000.94;5020790;28;20030;-44
2022/06/09 07:06:33;;;;;;;5.13;1.05;;;15.60;99.90;;;15.27;100.00;97007.78;5025071;28;20432;-43
2022/06/09 07:08:58;;;;;;;5.60;1.10;;;15.70;99.90;;;15.41;100.00;97008.72;5020076;28;20032;-43
2022/06/09 07:11:24;;;;;;;3.25;1.33;;;15.80;99.90;;;15.44;100.00;97008.53;5025022;28;20034;-45
2022/06/09 07:13:50;;;;;;;4.68;1.10;;;15.80;99.90;;;15.15;99.98;96981.97;5027877;28;20028;-43
2022/06/09 07:16:17;;;;;;;2.42;1.00;;;15.80;99.90;;;15.36;99.86;97017.00;5024253;28;20032;-43
2022/06/09 07:18:43;;;;;;;4.82;1.17;;;15.80;99.90;;;15.42;98.37;97015.75;5026280;28;20033;-45
2022/06/09 07:21:09;;;;;;;3.00;1.02;;;15.90;99.90;;;15.59;95.16;97025.31;5017505;28;20028;-44
2022/06/09 07:23:36;;;;;;;5.50;1.45;;;15.90;99.90;;;15.52;96.24;97029.31;5024410;28;20038;-43
2022/06/09 07:26:02;;;;;;;3.65;0.98;;;16.00;99.90;;;15.63;100.00;97022.38;5026126;28;20098;-42
2022/06/09 07:28:28;;;;;;;7.85;1.63;;;16.00;99.90;;;15.74;100.00;97027.03;5016308;28;20026;-43
2022/06/09 07:30:59;;;;;;;5.70;1.00;;;16.10;99.90;;;15.76;100.00;97030.44;5027299;28;20030;-47
2022/06/09 07:33:28;;;;;;;7.45;1.20;;;16.20;99.90;;;15.75;100.00;97043.84;5016376;28;20022;-45
2022/06/09 07:35:56;;;;;;;3.67;1.10;;;16.20;99.90;;;15.71;94.63;97036.97;5026857;28;20477;-47
2022/06/09 07:38:24;;;;;;;6.32;1.20;;;16.20;99.90;;;15.80;99.00;97041.75;5021022;28;20022;-40
2022/06/09 07:40:50;;;;;;;4.93;1.13;;;16.20;99.90;;;15.76;100.00;97037.59;5021321;28;20112;-45
2022/06/09 07:43:16;;;;;;;8.75;1.20;;;16.20;99.90;;;15.78;100.00;97030.34;5022797;28;20029;-43
2022/06/09 07:45:43;;;;;;;7.18;1.17;;;16.20;99.90;;;15.74;97.50;97036.75;5023488;28;20017;-43
2022/06/09 07:48:09;;;;;;;6.32;1.10;;;16.20;99.90;;;15.81;86.96;97041.66;5021128;28;20025;-43
2022/06/09 07:50:35;;;;;;;8.55;1.10;;;16.30;99.90;;;15.81;86.68;97032.84;5024770;28;20087;-44
2022/06/09 07:53:01;;;;;;;7.82;1.50;;;16.30;99.90;;;15.91;86.89;97049.03;5024231;28;20048;-43
2022/06/09 07:55:27;;;;;;;5.65;1.25;;;16.40;99.90;;;16.01;83.20;97053.66;5026763;28;20116;-44
2022/06/09 07:57:54;;;;;;;7.85;1.20;;;16.50;99.90;;;16.10;87.01;97051.38;5025057;28;20014;-44
2022/06/09 08:00:22;;;;;;;6.70;1.35;;;16.60;99.90;;;16.17;84.89;97050.88;5023510;28;20421;-45
2022/06/09 08:02:51;;;;;;;5.85;1.23;;;16.60;99.90;;;16.22;81.74;97045.22;5026993;28;20219;-44
2022/06/09 08:05:20;;;;;;;4.30;1.25;;;16.70;99.90;;;16.30;89.07;97047.41;5027413;28;20401;-43
2022/06/09 08:07:46;;;;;;;5.00;1.20;;;16.70;99.90;;;16.41;94.25;97048.41;5016851;28;20117;-45
2022/06/09 08:10:20;;;;;;;4.97;0.98;;;16.90;99.90;;;16.56;94.29;97046.53;5019954;28;20426;-43
2022/06/09 08:12:48;;;;;;;4.90;1.05;;;17.00;99.90;;;16.52;79.99;97061.00;5018574;28;20050;-43
2022/06/09 08:15:15;;;;;;;4.75;1.20;;;17.10;99.90;;;16.76;81.77;97066.50;5022098;28;20076;-43
2022/06/09 08:17:41;;;;;;;6.50;1.30;;;17.20;99.90;;;16.91;79.58;97059.31;5017897;28;20022;-44
2022/06/09 08:20:08;;;;;;;5.43;1.05;;;17.30;99.90;;;17.04;77.40;97058.47;5021498;28;20030;-43
2022/06/09 08:22:40;;;;;;;6.30;1.35;;;17.50;99.90;;;17.31;88.00;97061.88;5022047;28;20060;-42
2022/06/09 08:25:07;;;;;;;2.78;0.88;;;17.70;99.90;;;17.35;82.41;97071.41;5023575;28;20021;-43
2022/06/09 08:27:34;;;;;;;4.65;1.10;;;17.90;99.90;;;17.47;85.36;97068.81;5024363;28;20037;-43
2022/06/09 08:29:59;;;;;;;4.90;1.02;;;17.90;99.90;;;17.48;74.67;97074.06;5022387;28;20029;-46
2022/06/09 08:32:25;;;;;;;6.30;1.15;;;18.00;99.90;;;17.66;78.83;97071.91;5021555;28;20493;-44
2022/06/09 08:34:51;;;;;;;9.13;1.15;;;18.20;99.90;;;17.56;75.02;97076.16;5018577;28;20026;-45
2022/06/09 08:37:17;;;;;;;4.65;1.10;;;18.10;99.90;;;17.36;79.72;97075.75;5022635;28;20056;-44
2022/06/09 08:39:42;;;;;;;4.72;0.98;;;18.00;99.90;;;17.43;82.02;97078.84;5029346;28;20296;-42
2022/06/09 08:42:39;;;;;;;4.72;1.10;;;17.90;99.90;;;17.27;80.89;97076.38;5020389;28;20470;-44
2022/06/09 08:45:27;;;;;;;7.25;1.10;;;17.80;99.90;;;17.05;83.29;97078.81;5014237;28;20029;-44
2022/06/09 08:47:56;;;;;;;4.03;1.00;;;17.60;99.90;;;16.72;79.33;97088.94;5032614;28;20021;-46
2022/06/09 08:50:40;;;;;;;4.93;1.40;;;17.30;99.90;;;16.48;79.28;97086.13;5023400;28;20034;-43
2022/06/09 08:53:29;;;;;;;6.28;1.30;;;17.10;99.90;;;16.29;77.48;97088.25;5016020;28;20040;-43
2022/06/09 08:56:16;;;;;;;3.13;1.00;;;16.90;99.90;;;16.48;72.72;97086.13;5020395;28;20120;-43
2022/06/09 08:58:48;;;;;;;6.40;1.13;;;17.00;99.90;;;16.65;77.98;97086.81;5023618;28;20025;-43
2022/06/09 09:01:22;;;;;;;2.90;1.00;;;17.20;99.90;;;16.93;81.08;97092.00;5021405;28;20022;-44
2022/06/09 09:04:24;;;;;;;8.10;1.00;;;17.40;99.90;;;16.90;75.02;97104.69;5024257;28;20041;-46
2022/06/09 09:07:00;;;;;;;4.43;0.90;;;17.40;99.90;;;16.90;75.59;97099.34;5017549;28;20033;-43
2022/06/09 09:09:31;;;;;;;5.35;1.15;;;17.50;99.90;;;17.08;74.39;97102.59;5024830;28;20022;-44
2022/06/09 09:12:28;;;;;;;3.63;1.08;;;17.60;99.90;;;17.26;68.90;97103.16;5024010;28;20021;-45
2022/06/09 09:15:22;;;;;;;4.60;1.00;;;17.70;99.90;;;17.15;75.93;97106.53;5020996;28;20420;-44
2022/06/09 09:18:11;;;;;;;3.65;0.80;;;17.70;99.90;;;16.83;72.56;97101.56;5021989;28;20052;-45
2022/06/09 09:21:25;;;;;;;1.67;0.70;;;17.40;99.90;;;16.76;76.37;97103.78;5017202;28;20124;-45
2022/06/09 09:24:14;;;;;;;4.30;0.95;;;17.30;99.90;;;16.84;79.16;97103.28;5022637;28;20037;-43
2022/06/09 09:26:49;;;;;;;5.90;1.02;;;17.30;99.90;;;17.02;73.29;97111.00;5022887;28;20029;-43
2022/06/09 09:30:04;;;;;;;4.50;1.15;;;17.50;99.90;;;17.13;68.62;97108.47;5023374;28;20021;-44
2022/06/09 09:32:52;;;;;;;5.32;1.08;;;17.60;99.90;;;17.14;71.08;97103.03;5018025;28;20889;-45
2022/06/09 09:35:33;;;;;;;8.98;1.10;;;17.70;99.90;;;17.48;74.34;97113.16;5023012;28;20021;-44
2022/06/09 09:38:01;;;;;;;1.98;0.90;;;17.80;99.90;;;17.46;78.26;97123.09;5022870;28;20026;-41
2022/06/09 09:40:29;;;;;;;4.72;1.00;;;17.80;99.90;;;17.31;79.69;97117.00;5022071;28;20031;-46
2022/06/09 09:42:59;;;;;;;4.15;0.93;;;17.70;99.90;;;17.11;77.19;97118.38;5026134;28;20214;-46
2022/06/09 09:45:44;;;;;;;4.60;1.00;;;17.60;99.90;;;17.00;75.75;97112.94;5017729;28;20017;-44
2022/06/09 09:48:16;;;;;;;3.88;1.40;;;17.50;99.90;;;17.12;76.72;97109.41;5024596;28;20489;-43
2022/06/09 09:50:58;;;;;;;5.97;1.10;;;17.50;99.90;;;17.41;71.72;97111.88;5022668;28;20065;-42
2022/06/09 09:53:34;;;;;;;;;;;17.80;99.90;;;17.64;68.15;97112.94;5024440;28;20748;-42
2022/06/09 09:56:18;;;;;;;5.07;1.52;;;18.10;99.90;;;17.95;76.34;97105.50;5021851;28;19909;-45
2022/06/09 09:58:47;;;;;;;5.80;1.00;;;18.40;99.90;;;18.24;70.51;97112.25;5024287;28;20025;-44
2022/06/09 10:01:24;;;;;;;1.75;0.75;;;18.70;99.90;;;18.62;65.19;97110.41;5019703;28;20052;-45
2022/06/09 10:09:59;;;;;;;5.57;1.17;;;19.20;99.90;;;18.80;66.68;97126.88;5014962;28;20040;-44
2022/06/09 10:12:31;;;;;;;4.47;0.90;;;19.20;99.90;;;18.86;66.79;97123.78;5025845;28;20032;-45
2022/06/09 10:15:14;;;;;;;3.08;0.93;;;19.30;99.90;;;18.67;62.88;97124.28;5038568;28;20397;-43
2022/06/09 10:18:06;;;;;;;2.33;0.70;;;19.30;99.90;;;18.87;67.72;97121.00;5012347;28;20057;-43
2022/06/09 10:20:51;;;;;;;5.97;1.10;;;19.40;99.90;;;18.93;72.10;97124.16;5025365;28;20025;-45
2022/06/09 10:23:26;;;;;;;3.97;1.30;;;19.40;99.90;;;18.86;71.90;97124.66;5016770;28;20096;-44
2022/06/09 10:26:00;;;;;;;9.77;1.00;;;19.30;99.90;;;18.58;65.06;97125.81;5022957;28;20030;-42
2022/06/09 10:29:02;;;;;;;4.07;1.00;;;19.10;99.90;;;18.47;60.77;97131.09;5024286;28;20088;-45
2022/06/09 10:31:50;;;;;;;3.45;0.88;;;19.00;99.90;;;18.67;59.06;97130.47;5013029;28;20045;-47
2022/06/09 10:34:48;;;;;;;4.20;1.17;;;19.30;99.90;;;18.96;61.74;97130.13;5014275;28;20084;-43
2022/06/09 10:37:38;;;;;;;6.60;1.08;;;19.50;99.90;;;19.46;63.23;97121.91;5024154;28;20025;-44
2022/06/09 10:40:46;;;;;;;6.57;1.08;;;20.00;99.90;;;19.77;59.39;97120.38;5035425;28;20021;-43
2022/06/09 10:43:34;;;;;;;4.38;1.55;;;20.40;99.90;;;19.96;64.53;97129.66;5041155;28;20030;-43
2022/06/09 10:46:23;;;;;;;4.32;0.90;;;20.50;99.90;;;19.98;60.80;97131.22;5022370;28;20057;-46
2022/06/09 10:55:26;;;;;;;3.10;0.80;;;21.10;99.90;;;20.72;52.19;97130.63;5022847;28;20356;-43